Beks Yilmaz — V7WG9 — position and weather

sailwx.info

Track history (hours):
 
Tides and Currents Weather Stations Pressure Air Temp Water Temp Dewpoint Dewpoint Depression Visibility Wind Speed Wind Dir Waves Ship Positions

Beks Yilmaz

Last reported at 2018-Apr-26 13:11 UTC. Time now 2018-May-26 14:03 UTC.
Position N 10°04' W 015°56'.
Warning: this ship's position is 30 days out of date.

Length 229 m; draft 12.6 m.

Type: Cargo ship. MMSI: 538004298.

Date/timePositionNaut miles runAvg speedWind from/ knotsBaromVisibWave heightAir tempDewpointWater temp
2018-Apr-26 13:11N 10°04' W 015°56'911.4
2018-Apr-26 12:25N 10°04' W 015°47'511.6
2018-Apr-26 11:57N 10°04' W 015°41'911.6
2018-Apr-26 11:10N 10°04' W 015°32'211.8
2018-Apr-26 10:59N 10°04' W 015°30'611.8
2018-Apr-26 10:30N 10°04' W 015°24'4211.8
2018-Apr-26 06:57N 10°21' W 014°46'511.4
2018-Apr-26 06:30N 10°26' W 014°44'5 9.1
2018-Apr-26 05:58N 10°31' W 014°43'9 3.8
2018-Apr-26 03:33N 10°39' W 014°38'0 0.0
2018-Apr-26 03:24N 10°39' W 014°38'0 0.0
2018-Apr-26 03:00N 10°39' W 014°38'0 0.0
2018-Apr-26 01:51N 10°39' W 014°38'0 0.0
2018-Apr-26 01:30N 10°39' W 014°38'0 0.0
2018-Apr-26 00:54N 10°39' W 014°38'0 0.0
2018-Apr-25 22:39N 10°39' W 014°38'0 0.0
2018-Apr-25 22:30N 10°39' W 014°38'0 0.0
2018-Apr-25 21:57N 10°39' W 014°38'0 0.0
2018-Apr-25 21:30N 10°39' W 014°38'0 0.0
2018-Apr-25 03:45N 10°39' W 014°38'0 0.0
2018-Apr-25 03:15N 10°39' W 014°38'0 0.0
2018-Apr-25 03:00N 10°39' W 014°38'0 0.0
2018-Apr-25 02:30N 10°39' W 014°38'0 0.0
2018-Apr-25 01:51N 10°39' W 014°38'0 0.0
2018-Apr-24 22:27N 10°39' W 014°38'0 0.0
2018-Apr-24 21:57N 10°39' W 014°38'0 0.0
2018-Apr-24 21:09N 10°39' W 014°38'0 0.0
2018-Apr-24 21:00N 10°39' W 014°38'0 0.0
2018-Apr-24 20:30N 10°39' W 014°38'0 0.0
2018-Apr-24 20:00N 10°39' W 014°38'0 0.0
2018-Apr-24 19:24N 10°39' W 014°38'0 0.0
2018-Apr-24 05:12N 10°38' W 014°38'0 0.4
2018-Apr-24 05:00N 10°38' W 014°38'0 0.1
2018-Apr-24 04:24N 10°38' W 014°38'5 0.4
2018-Apr-23 16:13N 10°34' W 014°40'312.2
2018-Apr-23 16:00N 10°32' W 014°42'4 7.9
2018-Apr-23 15:30N 10°29' W 014°44'1 2.4
2018-Apr-23 15:00N 10°28' W 014°45'0 0.2
2018-Apr-23 13:05N 10°28' W 014°45'0 0.1
2018-Apr-23 12:59N 10°28' W 014°45'0 0.0
2018-Apr-23 00:23N 10°28' W 014°45'0 0.0
2018-Apr-22 23:59N 10°28' W 014°45'0 0.0
2018-Apr-22 23:29N 10°28' W 014°45'0 0.0
2018-Apr-22 22:53N 10°28' W 014°45'0 0.0
2018-Apr-22 22:29N 10°28' W 014°45'0 0.0
2018-Apr-22 21:59N 10°28' W 014°45'0 0.0
2018-Apr-22 21:29N 10°28' W 014°45'0 0.1
2018-Apr-22 20:14N 10°27' W 014°45'0 0.0
2018-Apr-22 16:26N 10°27' W 014°45'0 0.0
2018-Apr-22 14:39N 10°27' W 014°45'0 0.5
2018-Apr-22 14:30N 10°27' W 014°45'1 2.6
2018-Apr-22 13:59N 10°26' W 014°45'4 8.4
2018-Apr-22 13:30N 10°22' W 014°45'611.9
2018-Apr-22 13:00N 10°18' W 014°50'612.6
2018-Apr-22 12:30N 10°15' W 014°55'612.7
2018-Apr-22 12:00N 10°13' W 015°01'813.0
2018-Apr-22 11:21N 10°09' W 015°09'513.1
2018-Apr-22 10:58N 10°07' W 015°14'613.1
2018-Apr-22 10:30N 10°06' W 015°20'1012.8
2018-Apr-22 09:46N 10°04' W 015°29'313.5
2018-Apr-22 09:30N 10°04' W 015°33'813.4
2018-Apr-22 08:56N 10°04' W 015°40'1113.2
2018-Apr-22 08:07N 10°03' W 015°51'912.3
2018-Apr-22 07:23N 10°07' W 015°60'1013.3
2018-Apr-22 06:37N 10°13' W 016°08'113.2
2018-Apr-22 06:30N 10°14' W 016°09'1613.1
2018-Apr-22 05:19N 10°25' W 016°21'513.3
2018-Apr-22 04:57N 10°28' W 016°24'613.2
2018-Apr-22 04:30N 10°32' W 016°29'10912.7
2018-Apr-21 19:57N 12°04' W 017°28'613.1
2018-Apr-21 19:30N 12°10' W 017°29'  
2018-Apr-18 22:20N 27°04' W 015°37'413.0
2018-Apr-18 22:00N 27°08' W 015°36'713.1
2018-Apr-18 21:26N 27°15' W 015°33'613.1
2018-Apr-18 21:00N 27°21' W 015°31'713.1
2018-Apr-18 20:29N 27°27' W 015°28'613.2
2018-Apr-18 20:00N 27°33' W 015°26'1713.8
2018-Apr-18 18:47N 27°49' W 015°20'414.8
2018-Apr-18 18:30N 27°53' W 015°18'713.9
2018-Apr-18 18:00N 27°60' W 015°18'713.4
2018-Apr-18 17:31N 28°06' W 015°22'2 4.4
2018-Apr-18 17:01N 28°07' W 015°24'0 0.1
2018-Apr-18 16:23N 28°06' W 015°24'0 0.0
2018-Apr-18 15:53N 28°06' W 015°24'0 0.1
2018-Apr-18 15:26N 28°06' W 015°24'0 0.0
2018-Apr-18 14:56N 28°06' W 015°24'0 0.0
2018-Apr-18 14:26N 28°06' W 015°24'0 0.0
2018-Apr-18 13:56N 28°06' W 015°24'0 0.1
2018-Apr-18 13:26N 28°06' W 015°24'0 0.0
2018-Apr-18 12:56N 28°06' W 015°24'0 0.1
2018-Apr-18 12:29N 28°06' W 015°24'0 0.0
2018-Apr-18 11:59N 28°06' W 015°24'0 0.0
2018-Apr-18 11:29N 28°06' W 015°24'0 0.0
2018-Apr-18 10:59N 28°06' W 015°24'0 0.1
2018-Apr-18 10:29N 28°06' W 015°24'0 0.0
2018-Apr-18 09:59N 28°06' W 015°24'0 0.5
2018-Apr-18 09:30N 28°07' W 015°24'2 4.0
2018-Apr-18 09:00N 28°07' W 015°22'0 0.4
2018-Apr-18 08:27N 28°07' W 015°22'0 0.5
2018-Apr-18 08:00N 28°07' W 015°22'1 1.8
2018-Apr-18 07:30N 28°07' W 015°21'1 2.6
2018-Apr-18 07:00N 28°08' W 015°20'3 5.2
2018-Apr-18 06:30N 28°10' W 015°18'4 8.6
2018-Apr-18 06:00N 28°13' W 015°15'714.0
2018-Apr-18 05:30N 28°18' W 015°09'713.9
2018-Apr-18 05:00N 28°23' W 015°03'713.7
2018-Apr-18 04:30N 28°28' W 014°58'713.6
2018-Apr-18 04:00N 28°32' W 014°52'713.6
2018-Apr-18 03:30N 28°37' W 014°46'713.5
2018-Apr-18 02:59N 28°42' W 014°41'713.4
2018-Apr-18 02:27N 28°47' W 014°35'613.5
2018-Apr-18 02:00N 28°51' W 014°30'713.3
2018-Apr-18 01:30N 28°55' W 014°24'713.3
2018-Apr-18 01:00N 29°00' W 014°19'713.4
2018-Apr-18 00:30N 29°05' W 014°13'713.4
2018-Apr-18 00:00N 29°09' W 014°08'713.1
2018-Apr-17 23:30N 29°14' W 014°02'713.0
2018-Apr-17 23:00N 29°18' W 013°57'612.9
2018-Apr-17 22:30N 29°23' W 013°51'713.2
2018-Apr-17 22:00N 29°27' W 013°46'613.2
2018-Apr-17 21:30N 29°32' W 013°40'713.1
2018-Apr-17 21:00N 29°36' W 013°35'713.2
2018-Apr-17 20:30N 29°40' W 013°29'713.3
2018-Apr-17 20:00N 29°45' W 013°23'713.3
2018-Apr-17 19:30N 29°49' W 013°17'713.3
2018-Apr-17 19:00N 29°53' W 013°11'713.4
2018-Apr-17 18:30N 29°58' W 013°05'713.3
2018-Apr-17 18:00N 30°02' W 012°60'713.5
2018-Apr-17 17:30N 30°06' W 012°53'713.7
2018-Apr-17 17:00N 30°11' W 012°48'713.7
2018-Apr-17 16:30N 30°15' W 012°41'713.5
2018-Apr-17 16:00N 30°19' W 012°36'713.7
2018-Apr-17 15:29N 30°24' W 012°29'613.6
2018-Apr-17 15:00N 30°28' W 012°24'713.6
2018-Apr-17 14:30N 30°33' W 012°17'713.4
2018-Apr-17 13:59N 30°37' W 012°11'613.1
2018-Apr-17 13:30N 30°41' W 012°06'713.1
2018-Apr-17 13:00N 30°46' W 012°00'713.3
2018-Apr-17 12:30N 30°50' W 011°54'713.3
2018-Apr-17 12:00N 30°54' W 011°49'713.2
2018-Apr-17 11:30N 30°59' W 011°43'10313.1
2018-Apr-17 03:39N 32°05' W 010°11'213.3
2018-Apr-17 03:30N 32°07' W 010°09'  
Track history (hours):
 
Tides and Currents Weather Stations Pressure Air Temp Water Temp Dewpoint Dewpoint Depression Visibility Wind Speed Wind Dir Waves Ship Positions

Beks Yilmaz

Last reported at 2018-Apr-26 13:11 UTC. Time now 2018-May-26 14:03 UTC.
Position N 10°04' W 015°56'.
Warning: this ship's position is 30 days out of date.

Length 229 m; draft 12.6 m.

Type: Cargo ship. MMSI: 538004298.

Date/timePositionNaut miles runAvg speedWind from/ knotsBaromVisibWave heightAir tempDewpointWater temp
2018-Apr-26 13:11N 10°04' W 015°56'911.4
2018-Apr-26 12:25N 10°04' W 015°47'511.6
2018-Apr-26 11:57N 10°04' W 015°41'911.6
2018-Apr-26 11:10N 10°04' W 015°32'211.8
2018-Apr-26 10:59N 10°04' W 015°30'611.8
2018-Apr-26 10:30N 10°04' W 015°24'4211.8
2018-Apr-26 06:57N 10°21' W 014°46'511.4
2018-Apr-26 06:30N 10°26' W 014°44'5 9.1
2018-Apr-26 05:58N 10°31' W 014°43'9 3.8
2018-Apr-26 03:33N 10°39' W 014°38'0 0.0
2018-Apr-26 03:24N 10°39' W 014°38'0 0.0
2018-Apr-26 03:00N 10°39' W 014°38'0 0.0
2018-Apr-26 01:51N 10°39' W 014°38'0 0.0
2018-Apr-26 01:30N 10°39' W 014°38'0 0.0
2018-Apr-26 00:54N 10°39' W 014°38'0 0.0
2018-Apr-25 22:39N 10°39' W 014°38'0 0.0
2018-Apr-25 22:30N 10°39' W 014°38'0 0.0
2018-Apr-25 21:57N 10°39' W 014°38'0 0.0
2018-Apr-25 21:30N 10°39' W 014°38'0 0.0
2018-Apr-25 03:45N 10°39' W 014°38'0 0.0
2018-Apr-25 03:15N 10°39' W 014°38'0 0.0
2018-Apr-25 03:00N 10°39' W 014°38'0 0.0
2018-Apr-25 02:30N 10°39' W 014°38'0 0.0
2018-Apr-25 01:51N 10°39' W 014°38'0 0.0
2018-Apr-24 22:27N 10°39' W 014°38'0 0.0
2018-Apr-24 21:57N 10°39' W 014°38'0 0.0
2018-Apr-24 21:09N 10°39' W 014°38'0 0.0
2018-Apr-24 21:00N 10°39' W 014°38'0 0.0
2018-Apr-24 20:30N 10°39' W 014°38'0 0.0
2018-Apr-24 20:00N 10°39' W 014°38'0 0.0
2018-Apr-24 19:24N 10°39' W 014°38'0 0.0
2018-Apr-24 05:12N 10°38' W 014°38'0 0.4
2018-Apr-24 05:00N 10°38' W 014°38'0 0.1
2018-Apr-24 04:24N 10°38' W 014°38'5 0.4
2018-Apr-23 16:13N 10°34' W 014°40'312.2
2018-Apr-23 16:00N 10°32' W 014°42'4 7.9
2018-Apr-23 15:30N 10°29' W 014°44'1 2.4
2018-Apr-23 15:00N 10°28' W 014°45'0 0.2
2018-Apr-23 13:05N 10°28' W 014°45'0 0.1
2018-Apr-23 12:59N 10°28' W 014°45'0 0.0
2018-Apr-23 00:23N 10°28' W 014°45'0 0.0
2018-Apr-22 23:59N 10°28' W 014°45'0 0.0
2018-Apr-22 23:29N 10°28' W 014°45'0 0.0
2018-Apr-22 22:53N 10°28' W 014°45'0 0.0
2018-Apr-22 22:29N 10°28' W 014°45'0 0.0
2018-Apr-22 21:59N 10°28' W 014°45'0 0.0
2018-Apr-22 21:29N 10°28' W 014°45'0 0.1
2018-Apr-22 20:14N 10°27' W 014°45'0 0.0
2018-Apr-22 16:26N 10°27' W 014°45'0 0.0
2018-Apr-22 14:39N 10°27' W 014°45'0 0.5
2018-Apr-22 14:30N 10°27' W 014°45'1 2.6
2018-Apr-22 13:59N 10°26' W 014°45'4 8.4
2018-Apr-22 13:30N 10°22' W 014°45'611.9
2018-Apr-22 13:00N 10°18' W 014°50'612.6
2018-Apr-22 12:30N 10°15' W 014°55'612.7
2018-Apr-22 12:00N 10°13' W 015°01'813.0
2018-Apr-22 11:21N 10°09' W 015°09'513.1
2018-Apr-22 10:58N 10°07' W 015°14'613.1
2018-Apr-22 10:30N 10°06' W 015°20'1012.8
2018-Apr-22 09:46N 10°04' W 015°29'313.5
2018-Apr-22 09:30N 10°04' W 015°33'813.4
2018-Apr-22 08:56N 10°04' W 015°40'1113.2
2018-Apr-22 08:07N 10°03' W 015°51'912.3
2018-Apr-22 07:23N 10°07' W 015°60'1013.3
2018-Apr-22 06:37N 10°13' W 016°08'113.2
2018-Apr-22 06:30N 10°14' W 016°09'1613.1
2018-Apr-22 05:19N 10°25' W 016°21'513.3
2018-Apr-22 04:57N 10°28' W 016°24'613.2
2018-Apr-22 04:30N 10°32' W 016°29'10912.7
2018-Apr-21 19:57N 12°04' W 017°28'613.1
2018-Apr-21 19:30N 12°10' W 017°29'  
2018-Apr-18 22:20N 27°04' W 015°37'413.0
2018-Apr-18 22:00N 27°08' W 015°36'713.1
2018-Apr-18 21:26N 27°15' W 015°33'613.1
2018-Apr-18 21:00N 27°21' W 015°31'713.1
2018-Apr-18 20:29N 27°27' W 015°28'613.2
2018-Apr-18 20:00N 27°33' W 015°26'1713.8
2018-Apr-18 18:47N 27°49' W 015°20'414.8
2018-Apr-18 18:30N 27°53' W 015°18'713.9
2018-Apr-18 18:00N 27°60' W 015°18'713.4
2018-Apr-18 17:31N 28°06' W 015°22'2 4.4
2018-Apr-18 17:01N 28°07' W 015°24'0 0.1
2018-Apr-18 16:23N 28°06' W 015°24'0 0.0
2018-Apr-18 15:53N 28°06' W 015°24'0 0.1
2018-Apr-18 15:26N 28°06' W 015°24'0 0.0
2018-Apr-18 14:56N 28°06' W 015°24'0 0.0
2018-Apr-18 14:26N 28°06' W 015°24'0 0.0
2018-Apr-18 13:56N 28°06' W 015°24'0 0.1
2018-Apr-18 13:26N 28°06' W 015°24'0 0.0
2018-Apr-18 12:56N 28°06' W 015°24'0 0.1
2018-Apr-18 12:29N 28°06' W 015°24'0 0.0
2018-Apr-18 11:59N 28°06' W 015°24'0 0.0
2018-Apr-18 11:29N 28°06' W 015°24'0 0.0
2018-Apr-18 10:59N 28°06' W 015°24'0 0.1
2018-Apr-18 10:29N 28°06' W 015°24'0 0.0
2018-Apr-18 09:59N 28°06' W 015°24'0 0.5
2018-Apr-18 09:30N 28°07' W 015°24'2 4.0
2018-Apr-18 09:00N 28°07' W 015°22'0 0.4
2018-Apr-18 08:27N 28°07' W 015°22'0 0.5
2018-Apr-18 08:00N 28°07' W 015°22'1 1.8
2018-Apr-18 07:30N 28°07' W 015°21'1 2.6
2018-Apr-18 07:00N 28°08' W 015°20'3 5.2
2018-Apr-18 06:30N 28°10' W 015°18'4 8.6
2018-Apr-18 06:00N 28°13' W 015°15'714.0
2018-Apr-18 05:30N 28°18' W 015°09'713.9
2018-Apr-18 05:00N 28°23' W 015°03'713.7
2018-Apr-18 04:30N 28°28' W 014°58'713.6
2018-Apr-18 04:00N 28°32' W 014°52'713.6
2018-Apr-18 03:30N 28°37' W 014°46'713.5
2018-Apr-18 02:59N 28°42' W 014°41'713.4
2018-Apr-18 02:27N 28°47' W 014°35'613.5
2018-Apr-18 02:00N 28°51' W 014°30'713.3
2018-Apr-18 01:30N 28°55' W 014°24'713.3
2018-Apr-18 01:00N 29°00' W 014°19'713.4
2018-Apr-18 00:30N 29°05' W 014°13'713.4
2018-Apr-18 00:00N 29°09' W 014°08'713.1
2018-Apr-17 23:30N 29°14' W 014°02'713.0
2018-Apr-17 23:00N 29°18' W 013°57'612.9
2018-Apr-17 22:30N 29°23' W 013°51'713.2
2018-Apr-17 22:00N 29°27' W 013°46'613.2
2018-Apr-17 21:30N 29°32' W 013°40'713.1
2018-Apr-17 21:00N 29°36' W 013°35'713.2
2018-Apr-17 20:30N 29°40' W 013°29'713.3
2018-Apr-17 20:00N 29°45' W 013°23'713.3
2018-Apr-17 19:30N 29°49' W 013°17'713.3
2018-Apr-17 19:00N 29°53' W 013°11'713.4
2018-Apr-17 18:30N 29°58' W 013°05'713.3
2018-Apr-17 18:00N 30°02' W 012°60'713.5
2018-Apr-17 17:30N 30°06' W 012°53'713.7
2018-Apr-17 17:00N 30°11' W 012°48'713.7
2018-Apr-17 16:30N 30°15' W 012°41'713.5
2018-Apr-17 16:00N 30°19' W 012°36'713.7
2018-Apr-17 15:29N 30°24' W 012°29'613.6
2018-Apr-17 15:00N 30°28' W 012°24'713.6
2018-Apr-17 14:30N 30°33' W 012°17'713.4
2018-Apr-17 13:59N 30°37' W 012°11'613.1
2018-Apr-17 13:30N 30°41' W 012°06'713.1
2018-Apr-17 13:00N 30°46' W 012°00'713.3
2018-Apr-17 12:30N 30°50' W 011°54'713.3
2018-Apr-17 12:00N 30°54' W 011°49'713.2
2018-Apr-17 11:30N 30°59' W 011°43'10313.1
2018-Apr-17 03:39N 32°05' W 010°11'213.3
2018-Apr-17 03:30N 32°07' W 010°09'  

Dump ship's entire track history